createdAt,value
2022-08-03T00:02:16.845Z,73.40
2022-08-03T00:04:44.016Z,73.60
2022-08-03T00:07:10.966Z,73.70
2022-08-03T00:09:37.927Z,73.80
2022-08-03T00:12:05.318Z,74.00
2022-08-03T00:14:32.294Z,74.00
2022-08-03T00:16:59.354Z,74.00
2022-08-03T00:19:26.357Z,74.30
2022-08-03T00:21:53.271Z,74.40
2022-08-03T00:24:20.600Z,74.40
2022-08-03T00:26:47.590Z,74.70
2022-08-03T00:29:14.630Z,74.90
2022-08-03T00:31:52.896Z,74.60
2022-08-03T00:34:36.486Z,74.80
2022-08-03T00:37:13.563Z,74.70
2022-08-03T00:39:40.995Z,74.80
2022-08-03T00:42:08.023Z,74.80
2022-08-03T00:44:41.314Z,74.90
2022-08-03T00:47:10.381Z,75.60
2022-08-03T00:49:41.416Z,74.90
2022-08-03T00:52:10.100Z,75.30
2022-08-03T00:54:38.942Z,75.40
2022-08-03T00:57:06.835Z,75.60
2022-08-03T00:59:34.696Z,75.50
2022-08-03T01:02:01.722Z,75.50
2022-08-03T01:04:28.652Z,75.80
2022-08-03T01:07:21.332Z,76.10
2022-08-03T01:10:02.294Z,76.60
2022-08-03T01:12:33.230Z,76.60
2022-08-03T01:15:13.737Z,76.00
2022-08-03T01:17:54.818Z,76.90
2022-08-03T01:20:24.246Z,77.50
2022-08-03T01:22:57.110Z,77.10
2022-08-03T01:25:59.894Z,76.50
2022-08-03T01:28:38.702Z,77.50
2022-08-03T01:31:08.526Z,77.80
2022-08-03T01:33:47.045Z,78.00
2022-08-03T01:36:23.000Z,78.80
2022-08-03T01:38:53.682Z,78.50
2022-08-03T01:41:34.636Z,78.20
2022-08-03T01:44:29.547Z,78.10
2022-08-03T01:46:51.819Z,78.00
2022-08-03T01:49:19.285Z,78.00
2022-08-03T01:52:04.264Z,78.00
2022-08-03T01:54:40.533Z,78.30
2022-08-03T01:57:08.671Z,78.90
2022-08-03T01:59:37.529Z,78.30
2022-08-03T02:02:16.116Z,78.50
2022-08-03T02:04:58.732Z,78.90
2022-08-03T02:07:28.023Z,78.50
2022-08-03T02:09:57.012Z,78.90
2022-08-03T02:12:26.752Z,78.70
2022-08-03T02:14:56.477Z,79.70
2022-08-03T02:17:39.632Z,78.90
2022-08-03T02:20:11.853Z,79.10
2022-08-03T02:22:43.202Z,79.30
2022-08-03T02:25:11.690Z,80.10
2022-08-03T02:27:45.438Z,79.50
2022-08-03T02:30:14.463Z,80.40
2022-08-03T02:32:47.197Z,80.30
2022-08-03T02:35:17.104Z,80.70
2022-08-03T02:37:49.646Z,80.60
2022-08-03T02:40:19.445Z,80.80
2022-08-03T02:42:49.465Z,80.60
2022-08-03T02:45:20.331Z,80.40
2022-08-03T02:47:53.994Z,80.30
2022-08-03T02:50:23.283Z,79.70
2022-08-03T02:52:52.316Z,79.60
2022-08-03T02:55:22.791Z,79.90
2022-08-03T02:57:51.783Z,80.00
2022-08-03T03:00:27.084Z,79.60
2022-08-03T03:03:02.379Z,79.90
2022-08-03T03:05:55.111Z,80.20
2022-08-03T03:08:26.858Z,79.80
2022-08-03T03:10:58.227Z,80.80
2022-08-03T03:13:26.989Z,80.30
2022-08-03T03:15:55.191Z,80.20
2022-08-03T03:18:23.230Z,80.30
2022-08-03T03:20:52.971Z,80.20
2022-08-03T03:23:22.746Z,81.20
2022-08-03T03:25:50.305Z,81.30
2022-08-03T03:28:17.564Z,82.20
2022-08-03T03:30:45.050Z,81.00
2022-08-03T03:33:20.249Z,81.20
2022-08-03T03:35:47.454Z,81.00
2022-08-03T03:38:14.592Z,80.90
2022-08-03T03:40:42.031Z,80.90
2022-08-03T03:43:10.958Z,81.10
2022-08-03T03:45:40.699Z,81.40
2022-08-03T03:48:08.341Z,81.30
2022-08-03T03:50:37.700Z,81.60
2022-08-03T03:53:04.991Z,81.70
2022-08-03T03:55:37.493Z,81.80
2022-08-03T03:58:24.973Z,81.60
2022-08-03T04:00:54.024Z,81.50
2022-08-03T04:03:21.280Z,81.90
2022-08-03T04:06:07.256Z,81.50
2022-08-03T04:08:52.916Z,81.60
2022-08-03T04:11:27.462Z,81.70
2022-08-03T04:14:04.640Z,81.50
2022-08-03T04:16:34.810Z,81.90
2022-08-03T04:19:06.158Z,82.50
2022-08-03T04:21:37.337Z,82.30
2022-08-03T04:24:07.630Z,82.50
2022-08-03T04:26:37.226Z,82.30
2022-08-03T04:29:06.535Z,82.40
2022-08-03T04:31:35.366Z,82.30
2022-08-03T04:34:02.956Z,82.10
2022-08-03T04:36:35.204Z,81.60
2022-08-03T04:39:10.774Z,82.70
2022-08-03T04:42:04.373Z,82.40
2022-08-03T04:44:28.905Z,82.00
2022-08-03T04:46:57.239Z,82.00
2022-08-03T04:49:24.813Z,81.90
2022-08-03T04:51:52.745Z,81.80
2022-08-03T04:54:19.776Z,81.50
2022-08-03T04:56:46.790Z,81.80
2022-08-03T04:59:14.094Z,81.40
2022-08-03T05:01:42.306Z,81.80
2022-08-03T05:04:09.863Z,81.50
2022-08-03T05:06:36.853Z,81.40
2022-08-03T05:09:14.735Z,81.30
2022-08-03T05:11:41.718Z,81.30
2022-08-03T05:14:08.747Z,81.20
2022-08-03T05:16:35.679Z,81.20
2022-08-03T05:19:02.727Z,81.20
2022-08-03T05:21:52.222Z,81.00
2022-08-03T05:24:16.629Z,81.00
2022-08-03T05:26:43.680Z,80.80
2022-08-03T05:29:10.888Z,80.70
2022-08-03T05:31:37.814Z,80.70
2022-08-03T05:34:05.023Z,80.60
2022-08-03T05:36:31.974Z,80.30
2022-08-03T05:39:02.605Z,80.40
2022-08-03T05:41:36.496Z,80.30
2022-08-03T05:44:04.755Z,80.20
2022-08-03T05:46:31.945Z,80.10
2022-08-03T05:48:58.925Z,80.00
2022-08-03T05:51:26.089Z,79.80
2022-08-03T05:53:53.015Z,79.60
2022-08-03T05:56:24.320Z,79.50
2022-08-03T05:58:52.583Z,79.60
2022-08-03T06:01:23.701Z,78.90
2022-08-03T06:03:52.051Z,79.80
2022-08-03T06:06:19.839Z,78.60
2022-08-03T06:08:48.821Z,78.40
2022-08-03T06:11:16.658Z,78.50
2022-08-03T06:13:44.353Z,77.80
2022-08-03T06:16:11.449Z,78.00
2022-08-03T06:18:38.735Z,77.80
2022-08-03T06:21:14.553Z,77.40
2022-08-03T06:23:54.619Z,77.00
2022-08-03T06:26:26.694Z,76.70
2022-08-03T06:28:55.045Z,76.50
2022-08-03T06:31:32.371Z,76.10
2022-08-03T06:34:32.505Z,75.90
2022-08-03T06:36:50.222Z,75.80
2022-08-03T06:39:18.639Z,75.70
2022-08-03T06:41:45.745Z,75.40
2022-08-03T06:44:13.393Z,75.50
2022-08-03T06:46:40.662Z,75.30
2022-08-03T06:49:08.174Z,75.10
2022-08-03T06:52:05.933Z,74.80
2022-08-03T06:54:22.411Z,74.60
2022-08-03T06:56:49.436Z,74.10
2022-08-03T07:00:06.042Z,74.10
2022-08-03T07:02:03.844Z,73.70
2022-08-03T07:04:31.011Z,73.50
2022-08-03T07:06:58.598Z,73.50
2022-08-03T07:09:26.832Z,72.80
2022-08-03T07:11:54.511Z,72.60
2022-08-03T07:14:22.007Z,72.40
2022-08-03T07:16:49.061Z,72.00
2022-08-03T07:19:16.100Z,71.70
2022-08-03T07:21:43.078Z,71.80
2022-08-03T07:24:10.019Z,72.00
2022-08-03T07:26:36.990Z,71.80
2022-08-03T07:29:04.014Z,72.20
2022-08-03T07:31:42.330Z,71.20
2022-08-03T07:34:09.286Z,71.00
2022-08-03T07:36:36.228Z,70.80
2022-08-03T07:39:17.775Z,70.80
2022-08-03T07:41:46.280Z,70.40
2022-08-03T07:44:13.570Z,69.90
2022-08-03T07:46:40.515Z,69.60
2022-08-03T07:49:07.660Z,69.50
2022-08-03T07:51:34.914Z,69.40
2022-08-03T07:54:02.203Z,68.50
2022-08-03T07:56:30.171Z,68.00
2022-08-03T07:58:57.204Z,67.30
2022-08-03T08:01:24.503Z,67.40
2022-08-03T08:03:52.695Z,67.50
2022-08-03T08:06:21.432Z,67.00
2022-08-03T08:08:48.790Z,66.40
2022-08-03T08:11:15.967Z,66.40
2022-08-03T08:13:43.038Z,65.90
2022-08-03T08:16:09.962Z,65.10
2022-08-03T08:18:37.020Z,64.60
2022-08-03T08:21:04.087Z,64.10
2022-08-03T08:23:42.181Z,64.30
2022-08-03T08:26:10.624Z,63.80
2022-08-03T08:28:37.668Z,63.90
2022-08-03T08:31:04.666Z,63.60
2022-08-03T08:36:18.654Z,63.50
2022-08-03T08:38:45.670Z,63.60
2022-08-03T08:41:14.320Z,63.10
2022-08-03T08:43:42.718Z,62.40
2022-08-03T08:46:22.857Z,62.50
2022-08-03T08:48:52.651Z,62.00
2022-08-03T08:51:22.210Z,61.50
2022-08-03T08:53:52.535Z,60.90
2022-08-03T08:56:22.928Z,60.00
2022-08-03T08:58:53.183Z,60.20
2022-08-03T09:01:21.930Z,59.70
2022-08-03T09:03:49.111Z,59.40
2022-08-03T09:06:17.097Z,58.90
2022-08-03T09:08:44.123Z,57.90
2022-08-03T09:11:12.218Z,57.90
2022-08-03T09:13:39.959Z,57.70
2022-08-03T09:16:14.405Z,57.60
2022-08-03T09:18:43.509Z,57.10
2022-08-03T09:21:37.563Z,56.70
2022-08-03T09:24:13.050Z,56.00
2022-08-03T09:26:52.150Z,55.10
2022-08-03T09:29:22.061Z,54.50
2022-08-03T09:31:49.028Z,53.40
2022-08-03T09:34:18.199Z,53.50
2022-08-03T09:36:51.618Z,53.50
2022-08-03T09:39:41.702Z,53.60
2022-08-03T09:42:14.641Z,52.10
2022-08-03T09:44:44.915Z,51.50
2022-08-03T09:47:14.359Z,51.30
2022-08-03T09:49:42.926Z,50.70
2022-08-03T09:52:31.510Z,50.60
2022-08-03T09:55:03.202Z,49.60
2022-08-03T09:57:32.794Z,50.60
2022-08-03T10:00:08.959Z,49.10
2022-08-03T10:02:43.137Z,48.60
2022-08-03T10:05:17.496Z,47.70
2022-08-03T10:07:49.753Z,47.10
2022-08-03T10:10:31.843Z,47.10
2022-08-03T10:13:00.471Z,46.80
2022-08-03T10:16:21.969Z,46.00
2022-08-03T10:18:14.937Z,44.60
2022-08-03T10:20:49.183Z,43.90
2022-08-03T10:23:18.576Z,43.80
2022-08-03T10:25:52.737Z,43.50
2022-08-03T10:28:21.332Z,43.10
2022-08-03T10:30:51.376Z,42.30
2022-08-03T10:33:51.082Z,42.20
2022-08-03T10:36:09.103Z,41.00
2022-08-03T10:38:46.639Z,41.10
2022-08-03T10:41:16.009Z,40.90
2022-08-03T10:43:50.628Z,40.70
2022-08-03T10:46:20.719Z,40.30
2022-08-03T10:48:50.884Z,40.10
2022-08-03T10:51:17.815Z,39.40
2022-08-03T10:53:55.389Z,38.60
2022-08-03T10:56:54.701Z,37.70
2022-08-03T10:59:46.705Z,37.20
2022-08-03T11:02:15.131Z,37.20
2022-08-03T11:04:42.925Z,37.20
2022-08-03T11:07:21.905Z,36.90
2022-08-03T11:09:51.191Z,36.70
2022-08-03T11:12:32.287Z,36.50
2022-08-03T11:15:05.496Z,36.30
2022-08-03T11:17:46.746Z,36.20
2022-08-03T11:20:43.897Z,35.50
2022-08-03T11:23:11.026Z,34.50
2022-08-03T11:26:10.299Z,33.60
2022-08-03T11:28:41.119Z,34.10
2022-08-03T11:31:48.145Z,32.50
2022-08-03T11:34:12.148Z,32.00
2022-08-03T11:37:16.762Z,31.30
2022-08-03T11:39:46.716Z,31.20
2022-08-03T11:42:22.538Z,31.40
2022-08-03T11:44:50.826Z,30.90
2022-08-03T11:47:18.546Z,31.10
2022-08-03T11:49:49.951Z,30.80
2022-08-03T11:52:17.974Z,30.20
2022-08-03T11:54:45.190Z,30.30
2022-08-03T11:57:12.258Z,30.40
2022-08-03T11:59:39.285Z,31.60
2022-08-03T12:02:16.667Z,30.00
2022-08-03T12:04:51.746Z,29.70
2022-08-03T12:08:02.186Z,29.20
2022-08-03T12:10:13.869Z,29.40
2022-08-03T12:12:46.326Z,28.30
2022-08-03T12:15:14.031Z,28.10
2022-08-03T12:17:41.834Z,27.90
2022-08-03T12:20:10.543Z,27.90
2022-08-03T12:22:39.937Z,27.90
2022-08-03T12:25:38.616Z,27.80
2022-08-03T12:28:37.044Z,28.20
2022-08-03T12:31:11.967Z,28.20
2022-08-03T12:34:05.097Z,28.10
2022-08-03T12:36:34.109Z,28.10
2022-08-03T12:39:06.231Z,28.40
2022-08-03T12:41:38.407Z,27.30
2022-08-03T12:44:08.395Z,27.70
2022-08-03T12:46:47.373Z,27.30
2022-08-03T12:49:18.788Z,26.90
2022-08-03T12:51:45.831Z,26.60
2022-08-03T12:54:27.991Z,26.60
2022-08-03T12:57:06.040Z,26.60
2022-08-03T12:59:41.310Z,26.80
2022-08-03T13:02:19.898Z,26.70
2022-08-03T13:04:51.973Z,27.10
2022-08-03T13:07:20.957Z,26.90
2022-08-03T13:09:49.211Z,27.00
2022-08-03T13:12:29.041Z,26.90
2022-08-03T13:14:58.534Z,26.90
2022-08-03T13:17:27.278Z,27.10
2022-08-03T13:19:54.219Z,27.10
2022-08-03T13:22:24.361Z,27.10
2022-08-03T13:24:56.637Z,27.00
2022-08-03T13:28:03.447Z,27.30
2022-08-03T13:30:11.823Z,27.40
2022-08-03T13:32:39.109Z,27.30
2022-08-03T13:35:07.584Z,27.60
2022-08-03T13:37:34.811Z,27.70
2022-08-03T13:40:04.627Z,28.10
2022-08-03T13:42:34.066Z,28.00
2022-08-03T13:45:02.241Z,27.90
2022-08-03T13:47:29.372Z,28.10
2022-08-03T13:50:00.895Z,28.20
2022-08-03T13:52:33.881Z,28.00
2022-08-03T13:55:01.725Z,28.00
2022-08-03T13:58:06.234Z,28.00
2022-08-03T14:00:28.212Z,27.80
2022-08-03T14:03:09.233Z,27.40
2022-08-03T14:05:41.027Z,27.90
2022-08-03T14:08:08.343Z,28.00
2022-08-03T14:10:37.701Z,28.90
2022-08-03T14:13:05.505Z,28.30
2022-08-03T14:15:37.178Z,28.50
2022-08-03T14:18:06.633Z,27.90
2022-08-03T14:20:38.649Z,28.20
2022-08-03T14:23:15.635Z,28.20
2022-08-03T14:25:50.265Z,27.70
2022-08-03T14:28:23.722Z,27.90
2022-08-03T14:30:56.102Z,27.90
2022-08-03T14:33:23.699Z,28.00
2022-08-03T14:35:51.870Z,28.00
2022-08-03T14:38:19.806Z,28.00
2022-08-03T14:40:47.587Z,28.00
2022-08-03T14:43:15.443Z,28.20
2022-08-03T14:45:42.845Z,28.30
2022-08-03T14:50:34.711Z,28.60
2022-08-03T14:50:57.170Z,28.40
2022-08-03T14:53:24.485Z,27.90
2022-08-03T14:55:53.108Z,28.40
2022-08-03T14:58:22.240Z,28.70
2022-08-03T15:00:50.711Z,28.70
2022-08-03T15:03:23.889Z,28.40
2022-08-03T15:05:52.995Z,28.40
2022-08-03T15:08:20.363Z,28.70
2022-08-03T15:10:48.421Z,28.50
2022-08-03T15:13:17.727Z,28.50
2022-08-03T15:15:44.809Z,28.00
2022-08-03T15:18:12.136Z,28.00
2022-08-03T15:20:45.056Z,27.80
2022-08-03T15:23:14.076Z,27.80
2022-08-03T15:26:28.153Z,28.00
2022-08-03T15:28:28.206Z,28.20
2022-08-03T15:30:56.507Z,28.50
2022-08-03T15:33:23.584Z,28.40
2022-08-03T15:35:50.812Z,28.00
2022-08-03T15:38:17.984Z,27.80
2022-08-03T15:40:46.748Z,27.80
2022-08-03T15:43:13.834Z,27.70
2022-08-03T15:45:42.197Z,27.70
2022-08-03T15:48:09.411Z,28.00
2022-08-03T15:50:36.511Z,28.20
2022-08-03T15:53:03.989Z,28.30
2022-08-03T15:55:31.624Z,28.00
2022-08-03T15:59:10.876Z,28.10
2022-08-03T16:00:46.089Z,28.20
2022-08-03T16:03:13.478Z,28.30
2022-08-03T16:05:40.493Z,28.60
2022-08-03T16:08:13.188Z,28.90
2022-08-03T16:10:41.217Z,29.20
2022-08-03T16:13:08.796Z,29.50
2022-08-03T16:15:38.692Z,29.80
2022-08-03T16:18:06.851Z,30.00
2022-08-03T16:20:35.293Z,29.60
2022-08-03T16:23:11.447Z,29.80
2022-08-03T16:25:41.351Z,29.60
2022-08-03T16:28:13.997Z,29.40
2022-08-03T16:30:43.376Z,29.30
2022-08-03T16:33:17.333Z,29.50
2022-08-03T16:35:45.643Z,29.70
2022-08-03T16:38:18.518Z,29.60
2022-08-03T16:40:47.469Z,29.30
2022-08-03T16:43:17.961Z,29.40
2022-08-03T16:45:48.214Z,29.60
2022-08-03T16:48:16.323Z,29.50
2022-08-03T16:50:44.425Z,29.80
2022-08-03T16:53:16.459Z,30.00
2022-08-03T16:55:54.218Z,30.60
2022-08-03T16:58:24.478Z,30.20
2022-08-03T17:01:22.216Z,30.10
2022-08-03T17:04:01.792Z,30.00
2022-08-03T17:06:36.584Z,30.10
2022-08-03T17:09:09.186Z,30.50
2022-08-03T17:11:44.183Z,31.10
2022-08-03T17:14:16.396Z,30.90
2022-08-03T17:16:52.648Z,31.20
2022-08-03T17:19:24.520Z,31.50
2022-08-03T17:22:16.019Z,31.20
2022-08-03T17:24:52.720Z,31.00
2022-08-03T17:28:48.124Z,31.40
2022-08-03T17:30:16.383Z,31.40
2022-08-03T17:32:53.481Z,32.50
2022-08-03T17:35:25.131Z,32.50
2022-08-03T17:38:15.000Z,33.20
2022-08-03T17:40:51.956Z,34.50
2022-08-03T17:44:12.721Z,34.70
2022-08-03T17:46:07.304Z,35.30
2022-08-03T17:48:41.195Z,34.60
2022-08-03T17:51:15.447Z,34.80
2022-08-03T17:53:58.704Z,35.00
2022-08-03T17:56:50.706Z,34.10
2022-08-03T17:59:51.705Z,34.10
2022-08-03T18:03:18.640Z,34.70
2022-08-03T18:06:10.440Z,34.80
2022-08-03T18:08:50.799Z,35.20
2022-08-03T18:11:21.801Z,35.40
2022-08-03T18:14:30.510Z,36.10
2022-08-03T18:17:04.962Z,36.30
2022-08-03T18:20:03.478Z,37.00
2022-08-03T18:22:27.144Z,37.30
2022-08-03T18:24:56.349Z,37.90
2022-08-03T18:27:24.798Z,38.30
2022-08-03T18:30:12.323Z,38.40
2022-08-03T18:32:39.702Z,38.80
2022-08-03T18:35:13.688Z,39.00
2022-08-03T18:37:51.683Z,38.80
2022-08-03T18:40:21.093Z,39.50
2022-08-03T18:45:55.703Z,40.10
2022-08-03T18:48:55.239Z,40.40
2022-08-03T18:51:28.740Z,40.70
2022-08-03T18:54:47.085Z,42.00
2022-08-03T18:57:22.030Z,43.10
2022-08-03T19:00:12.536Z,44.40
2022-08-03T19:02:54.935Z,45.00
2022-08-03T19:05:53.785Z,45.90
2022-08-03T19:08:26.134Z,46.30
2022-08-03T19:11:00.821Z,47.10
2022-08-03T19:13:50.461Z,47.80
2022-08-03T19:16:38.762Z,48.30
2022-08-03T19:19:14.445Z,48.70
2022-08-03T19:21:59.329Z,49.50
2022-08-03T19:24:28.013Z,49.90
2022-08-03T19:26:56.105Z,50.40
2022-08-03T19:29:25.256Z,50.70
2022-08-03T19:32:19.317Z,51.40
2022-08-03T19:34:47.857Z,52.00
2022-08-03T19:37:16.063Z,52.70
2022-08-03T19:39:44.068Z,52.80
2022-08-03T19:42:31.212Z,53.10
2022-08-03T19:45:13.794Z,53.60
2022-08-03T19:48:03.174Z,54.10
2022-08-03T19:50:33.352Z,54.50
2022-08-03T19:53:04.226Z,55.10
2022-08-03T19:55:34.827Z,55.40
2022-08-03T19:58:17.823Z,56.00
2022-08-03T20:00:55.678Z,56.30
2022-08-03T20:03:24.890Z,57.00
2022-08-03T20:05:54.166Z,57.40
2022-08-03T20:08:22.549Z,58.00
2022-08-03T20:10:51.334Z,58.50
2022-08-03T20:13:20.004Z,58.50
2022-08-03T20:15:47.779Z,59.90
2022-08-03T20:18:20.455Z,59.10
2022-08-03T20:20:52.258Z,59.40
2022-08-03T20:23:20.564Z,59.50
2022-08-03T20:25:58.307Z,59.60
2022-08-03T20:28:33.143Z,59.90
2022-08-03T20:31:00.282Z,60.40
2022-08-03T20:33:46.293Z,60.20
2022-08-03T20:36:18.395Z,60.30
2022-08-03T20:38:47.916Z,60.60
2022-08-03T20:41:16.875Z,60.80
2022-08-03T20:43:44.585Z,61.20
2022-08-03T20:46:37.235Z,61.80
2022-08-03T20:49:04.066Z,62.00
2022-08-03T20:51:50.448Z,62.30
2022-08-03T20:54:30.506Z,62.50
2022-08-03T20:57:04.233Z,63.80
2022-08-03T20:59:50.287Z,63.00
2022-08-03T21:02:28.850Z,63.00
2022-08-03T21:05:03.767Z,63.00
2022-08-03T21:08:04.440Z,63.40
2022-08-03T21:10:29.675Z,63.70
2022-08-03T21:12:58.871Z,39.80
2022-08-03T21:16:06.434Z,64.60
2022-08-03T21:18:44.848Z,64.90
2022-08-03T21:21:14.619Z,65.00
2022-08-03T21:23:47.805Z,65.30
2022-08-03T21:26:17.975Z,65.50
2022-08-03T21:28:47.474Z,65.70
2022-08-03T21:31:22.293Z,66.00
2022-08-03T21:33:57.942Z,65.90
2022-08-03T21:36:31.880Z,66.30
2022-08-03T21:38:59.956Z,66.70
2022-08-03T21:41:29.071Z,67.00
2022-08-03T21:43:56.782Z,67.30
2022-08-03T21:46:24.854Z,67.30
2022-08-03T21:48:56.320Z,67.10
2022-08-03T21:51:28.674Z,67.60
2022-08-03T21:54:02.558Z,67.80
2022-08-03T21:56:41.592Z,68.00
2022-08-03T21:59:16.005Z,67.40
2022-08-03T22:01:49.188Z,68.30
2022-08-03T22:04:54.905Z,68.40
2022-08-03T22:07:08.405Z,68.40
2022-08-03T22:09:36.231Z,68.30
2022-08-03T22:12:03.749Z,68.40
2022-08-03T22:14:33.275Z,68.70
2022-08-03T22:17:06.454Z,69.40
2022-08-03T22:19:34.635Z,69.40
2022-08-03T22:22:06.140Z,69.30
2022-08-03T22:24:36.370Z,69.30
2022-08-03T22:27:23.220Z,69.20
2022-08-03T22:29:51.464Z,69.20
2022-08-03T22:32:18.520Z,69.40
2022-08-03T22:34:47.833Z,69.80
2022-08-03T22:37:18.670Z,70.20
2022-08-03T22:39:45.867Z,70.30
2022-08-03T22:42:13.858Z,70.40
2022-08-03T22:44:40.900Z,70.50
2022-08-03T22:47:09.651Z,70.80
2022-08-03T22:49:37.867Z,70.60
2022-08-03T22:52:05.796Z,71.80
2022-08-03T22:54:33.283Z,70.90
2022-08-03T22:57:00.861Z,71.20
2022-08-03T22:59:40.030Z,71.50
2022-08-03T23:02:21.125Z,72.10
2022-08-03T23:04:54.983Z,72.30
2022-08-03T23:07:35.994Z,72.40
2022-08-03T23:10:07.479Z,72.20
2022-08-03T23:12:36.617Z,73.40
2022-08-03T23:15:07.181Z,72.20
2022-08-03T23:17:57.328Z,72.40
2022-08-03T23:20:26.895Z,72.00
2022-08-03T23:22:57.698Z,72.00
2022-08-03T23:25:25.276Z,72.20
2022-08-03T23:28:05.319Z,72.60
2022-08-03T23:30:37.156Z,72.50
2022-08-03T23:33:04.605Z,73.00
2022-08-03T23:36:28.326Z,72.80
2022-08-03T23:38:37.214Z,72.50
2022-08-03T23:41:05.129Z,72.90
2022-08-03T23:43:44.965Z,73.20
2022-08-03T23:46:21.272Z,73.80
2022-08-03T23:48:48.538Z,73.20
2022-08-03T23:51:33.658Z,73.60
2022-08-03T23:54:10.336Z,74.20
2022-08-03T23:56:48.835Z,74.00
2022-08-03T23:59:49.261Z,74.20
